Time;durP1;ratioP1;P1;durP2;ratioP2;P2;SDS_P1;SDS_P2;PMS_P1;PMS_P2;Temp;Humidity;BMP_temperature;BMP_pressure;BME280_temperature;BME280_humidity;BME280_pressure;Samples;Min_cycle;Max_cycle;Signal;HPM_P1;HPM_P2
2023/12/24 00:03:28;;;;;;;5.30;3.80;;;;;;;0.54;88.40;97579.06;226529;1263;22533;-74
2023/12/24 00:08:31;;;;;;;5.20;4.10;;;;;;;0.53;88.55;97585.58;226445;1269;22533;-73
2023/12/24 00:13:33;;;;;;;5.10;4.00;;;;;;;0.55;88.64;97585.62;226402;1251;22578;-74
2023/12/24 00:18:36;;;;;;;5.00;4.20;;;;;;;0.54;88.73;97591.59;226471;1266;22556;-74
2023/12/24 00:23:38;;;;;;;5.50;4.20;;;;;;;0.53;88.49;97591.88;226560;1272;22555;-75
2023/12/24 00:28:40;;;;;;;3.60;3.00;;;;;;;0.50;88.50;97599.26;226529;1270;22553;-74
2023/12/24 00:33:42;;;;;;;4.00;3.10;;;;;;;0.45;88.73;97601.67;226542;1271;22532;-74
2023/12/24 00:38:44;;;;;;;3.90;2.10;;;;;;;0.44;88.84;97610.14;226542;1270;25097;-74
2023/12/24 00:43:46;;;;;;;2.30;1.60;;;;;;;0.42;88.79;97619.65;226477;1270;22541;-74
2023/12/24 00:48:48;;;;;;;2.80;1.50;;;;;;;0.40;88.68;97626.09;226555;1272;22563;-75
2023/12/24 00:53:50;;;;;;;1.80;1.10;;;;;;;0.38;88.92;97635.48;226515;1269;22535;-75
2023/12/24 00:58:54;;;;;;;1.60;0.70;;;;;;;0.37;88.78;97643.70;226535;1272;22552;-74
2023/12/24 01:03:57;;;;;;;1.40;0.90;;;;;;;0.36;88.46;97644.27;226435;1273;22587;-75
2023/12/24 01:09:00;;;;;;;1.60;0.70;;;;;;;0.34;88.67;97646.73;226572;1273;22541;-75
2023/12/24 01:14:01;;;;;;;1.90;0.60;;;;;;;0.29;88.60;97649.95;226532;1251;22551;-73
2023/12/24 01:19:04;;;;;;;1.20;0.40;;;;;;;0.29;88.58;97657.30;226600;1269;22568;-74
2023/12/24 01:24:06;;;;;;;3.30;0.90;;;;;;;0.27;88.68;97664.39;226562;1273;22976;-74
2023/12/24 01:29:08;;;;;;;3.00;1.00;;;;;;;0.26;88.78;97667.77;226458;1269;22543;-74
2023/12/24 01:34:10;;;;;;;2.10;1.30;;;;;;;0.26;88.68;97667.45;226454;1272;22524;-75
2023/12/24 01:39:13;;;;;;;2.20;1.20;;;;;;;0.26;88.63;97676.33;226494;1273;22560;-75
2023/12/24 01:44:15;;;;;;;2.10;1.20;;;;;;;0.25;88.86;97675.21;226456;1269;22556;-74
2023/12/24 01:49:17;;;;;;;3.10;0.70;;;;;;;0.23;88.68;97678.96;226481;1272;22576;-74
2023/12/24 01:54:20;;;;;;;0.80;0.70;;;;;;;0.21;88.79;97682.31;226389;1273;22542;-74
2023/12/24 01:59:23;;;;;;;2.00;0.80;;;;;;;0.20;88.90;97683.66;226479;1270;22543;-74
2023/12/24 02:04:25;;;;;;;2.40;1.20;;;;;;;0.18;88.95;97689.14;226739;1266;22532;-74
2023/12/24 02:09:27;;;;;;;4.30;1.40;;;;;;;0.21;89.03;97692.73;226376;1272;22569;-74
2023/12/24 02:14:29;;;;;;;2.70;1.00;;;;;;;0.19;88.99;97688.59;226416;1269;22544;-74
2023/12/24 02:19:31;;;;;;;4.30;1.80;;;;;;;0.19;89.14;97688.36;226493;1274;22920;-75
2023/12/24 02:24:34;;;;;;;4.00;2.50;;;;;;;0.21;89.16;97688.48;226492;1273;23005;-75
2023/12/24 02:29:48;;;;;;;4.40;3.20;;;;;;;0.24;88.93;97691.20;226433;1272;22710;-75
2023/12/24 02:34:51;;;;;;;5.10;2.70;;;;;;;0.24;88.93;97692.09;226446;1269;22536;-75
2023/12/24 02:39:54;;;;;;;2.30;1.50;;;;;;;0.22;89.09;97699.76;226544;1271;24273;-74
2023/12/24 02:44:56;;;;;;;2.70;1.50;;;;;;;0.21;89.33;97700.98;226558;1271;22647;-74
2023/12/24 02:49:58;;;;;;;0.60;0.60;;;;;;;0.22;89.20;97693.30;226567;1263;22533;-74
2023/12/24 02:55:00;;;;;;;1.60;0.90;;;;;;;0.23;89.16;97695.84;226517;1269;22545;-74
2023/12/24 03:00:05;;;;;;;3.00;1.80;;;;;;;0.21;89.04;97698.41;226361;1273;22534;-74
2023/12/24 03:05:07;;;;;;;3.40;1.60;;;;;;;0.21;89.18;97691.96;226565;1271;22633;-74
2023/12/24 03:10:09;;;;;;;2.80;1.80;;;;;;;0.25;89.42;97690.90;226546;1271;22683;-74
2023/12/24 03:15:11;;;;;;;6.30;2.90;;;;;;;0.26;89.02;97693.77;226369;1274;22540;-74
2023/12/24 03:20:13;;;;;;;3.60;2.60;;;;;;;0.25;89.16;97690.23;226438;1274;22583;-74
2023/12/24 03:25:15;;;;;;;5.30;2.70;;;;;;;0.23;89.24;97694.38;226509;1272;23010;-75
2023/12/24 03:30:17;;;;;;;4.90;2.90;;;;;;;0.21;88.87;97696.88;226488;1272;25953;-74
2023/12/24 03:35:19;;;;;;;6.90;3.60;;;;;;;0.20;89.19;97696.13;226536;1273;24729;-75
2023/12/24 03:40:21;;;;;;;5.70;3.70;;;;;;;0.19;89.29;97692.41;226539;1272;22547;-75
2023/12/24 03:45:23;;;;;;;6.10;3.60;;;;;;;0.18;89.27;97696.25;226441;1273;22613;-74
2023/12/24 03:50:25;;;;;;;5.30;3.70;;;;;;;0.19;89.45;97701.60;226468;1274;22547;-75
2023/12/24 03:55:27;;;;;;;5.10;3.80;;;;;;;0.16;89.01;97702.07;226507;1274;27330;-74
2023/12/24 04:00:30;;;;;;;6.50;4.00;;;;;;;0.15;89.08;97702.49;226517;1272;22883;-74
2023/12/24 04:05:32;;;;;;;5.90;4.00;;;;;;;0.14;89.23;97708.80;226516;1273;22533;-75
2023/12/24 04:10:38;;;;;;;7.20;4.30;;;;;;;0.18;89.44;97701.80;226435;1269;24247;-75
2023/12/24 04:15:41;;;;;;;7.10;4.00;;;;;;;0.22;89.67;97698.88;226484;1269;22544;-74
2023/12/24 04:20:43;;;;;;;5.40;3.50;;;;;;;0.26;89.47;97698.11;226475;1272;22552;-74
2023/12/24 04:25:45;;;;;;;4.60;2.80;;;;;;;0.28;89.54;97698.62;226524;1267;22534;-75
2023/12/24 04:30:48;;;;;;;4.30;2.80;;;;;;;0.29;89.59;97697.29;226515;1264;22549;-75
2023/12/24 04:35:50;;;;;;;4.90;2.70;;;;;;;0.31;89.35;97697.68;226441;1272;22543;-75
2023/12/24 04:40:54;;;;;;;4.60;3.50;;;;;;;0.34;89.31;97694.55;226511;1272;22543;-75
2023/12/24 04:45:57;;;;;;;3.60;2.90;;;;;;;0.38;89.43;97690.05;226478;1272;22551;-75
2023/12/24 04:50:59;;;;;;;4.60;3.10;;;;;;;0.40;89.56;97685.88;226420;1269;22955;-74
2023/12/24 04:56:01;;;;;;;3.80;2.90;;;;;;;0.42;89.42;97686.80;226459;1273;22547;-74
2023/12/24 05:01:05;;;;;;;4.30;3.20;;;;;;;0.41;89.24;97692.64;226419;1272;22534;-74
2023/12/24 05:06:07;;;;;;;5.30;3.00;;;;;;;0.40;89.13;97691.94;226559;1271;22602;-75
2023/12/24 05:11:10;;;;;;;5.60;3.40;;;;;;;0.34;89.03;97690.56;226540;1272;22643;-74
2023/12/24 05:16:12;;;;;;;6.00;3.40;;;;;;;0.30;89.07;97690.56;226403;1273;22688;-74
2023/12/24 05:21:14;;;;;;;7.30;3.70;;;;;;;0.31;89.36;97681.70;226522;1272;22699;-74
2023/12/24 05:26:16;;;;;;;5.90;2.90;;;;;;;0.30;89.16;97691.73;226341;1274;22540;-74
2023/12/24 05:31:19;;;;;;;6.40;3.30;;;;;;;0.30;89.07;97689.39;226382;1274;24284;-74
2023/12/24 05:36:21;;;;;;;6.60;4.20;;;;;;;0.30;89.33;97695.08;226558;1274;22540;-74
2023/12/24 05:41:23;;;;;;;7.20;4.10;;;;;;;0.30;89.06;97699.10;226463;1274;22627;-75
2023/12/24 05:46:29;;;;;;;9.40;5.70;;;;;;;0.27;89.05;97698.70;226346;1274;22542;-74
2023/12/24 05:51:31;;;;;;;11.00;7.60;;;;;;;0.25;89.15;97700.14;226507;1263;22544;-74
2023/12/24 05:56:33;;;;;;;9.90;7.00;;;;;;;0.22;89.21;97698.98;226554;1272;22548;-74
2023/12/24 06:01:36;;;;;;;6.60;5.40;;;;;;;0.22;89.17;97703.16;226506;1274;22613;-74
2023/12/24 06:06:41;;;;;;;7.80;5.90;;;;;;;0.24;89.57;97699.98;226369;1272;22540;-75
2023/12/24 06:11:44;;;;;;;7.20;5.40;;;;;;;0.28;89.50;97707.96;226324;1269;23549;-74
2023/12/24 06:16:46;;;;;;;7.00;5.50;;;;;;;0.32;89.66;97712.56;226517;1263;22564;-74
2023/12/24 06:21:49;;;;;;;7.70;6.80;;;;;;;0.30;89.45;97712.04;226359;1272;22992;-73
2023/12/24 06:26:51;;;;;;;11.30;8.50;;;;;;;0.31;89.45;97707.26;226467;1274;22640;-74
2023/12/24 06:31:56;;;;;;;14.50;9.40;;;;;;;0.36;89.80;97704.70;226489;1272;22625;-74
2023/12/24 06:36:58;;;;;;;16.40;10.90;;;;;;;0.40;89.66;97690.20;226410;1270;24241;-74
2023/12/24 06:42:00;;;;;;;19.60;11.90;;;;;;;0.43;89.74;97691.96;226377;1272;22560;-74
2023/12/24 06:47:02;;;;;;;20.60;13.80;;;;;;;0.52;90.06;97683.17;226467;1272;22598;-74
2023/12/24 06:52:04;;;;;;;17.60;12.80;;;;;;;0.59;89.89;97688.42;226539;1272;22535;-74
2023/12/24 06:57:08;;;;;;;17.60;13.40;;;;;;;0.65;89.66;97695.79;226481;1272;22884;-74
2023/12/24 07:02:10;;;;;;;18.20;12.40;;;;;;;0.70;89.92;97702.92;226522;1272;24355;-73
2023/12/24 07:07:12;;;;;;;17.70;11.70;;;;;;;0.73;89.67;97711.06;226416;1274;22635;-74
2023/12/24 07:12:14;;;;;;;18.10;13.00;;;;;;;0.78;89.84;97703.96;226463;1274;22530;-74
2023/12/24 07:17:16;;;;;;;17.50;13.50;;;;;;;0.86;89.82;97688.68;226401;1269;24234;-74
2023/12/24 07:22:18;;;;;;;20.80;14.20;;;;;;;0.94;89.83;97682.61;226518;1272;22545;-76
2023/12/24 07:27:21;;;;;;;20.50;13.90;;;;;;;1.06;89.93;97684.35;226424;1272;22585;-74
2023/12/24 07:32:23;;;;;;;25.00;17.90;;;;;;;1.17;89.58;97675.93;226447;1272;22683;-76
2023/12/24 07:37:25;;;;;;;25.10;16.50;;;;;;;1.28;89.39;97679.30;226517;1274;23232;-74
2023/12/24 07:42:28;;;;;;;21.10;14.40;;;;;;;1.40;89.31;97663.56;226479;1273;22574;-75
2023/12/24 07:47:31;;;;;;;26.20;18.00;;;;;;;1.47;88.79;97666.84;226415;1270;22562;-75
2023/12/24 07:52:33;;;;;;;31.70;20.60;;;;;;;1.52;89.10;97645.23;226972;1270;22567;-74
2023/12/24 07:57:35;;;;;;;24.70;16.00;;;;;;;1.54;88.45;97651.66;226504;1274;22643;-75
2023/12/24 08:02:37;;;;;;;25.90;15.30;;;;;;;1.47;87.95;97648.46;226418;1274;22536;-75
2023/12/24 08:07:39;;;;;;;26.30;17.40;;;;;;;1.48;88.35;97676.31;226482;1273;24274;-75
2023/12/24 08:12:42;;;;;;;27.50;18.20;;;;;;;1.55;88.69;97674.40;226480;1274;22580;-75
2023/12/24 08:17:48;;;;;;;21.20;13.80;;;;;;;1.65;88.65;97660.77;226464;1272;22558;-74
2023/12/24 08:22:51;;;;;;;20.60;13.10;;;;;;;1.78;88.36;97661.96;226505;1273;22634;-74
2023/12/24 08:27:53;;;;;;;28.30;17.40;;;;;;;1.93;88.67;97662.17;226474;1272;22689;-74
2023/12/24 08:32:55;;;;;;;25.20;15.50;;;;;;;2.03;88.33;97663.37;226498;1273;22545;-74
2023/12/24 08:37:59;;;;;;;23.50;15.50;;;;;;;2.12;88.30;97660.10;226437;1269;22552;-75
2023/12/24 08:43:01;;;;;;;27.40;15.90;;;;;;;2.22;88.36;97657.50;226554;1270;22536;-75
2023/12/24 08:48:03;;;;;;;26.80;16.40;;;;;;;2.27;87.82;97652.80;226448;1269;22535;-75
2023/12/24 08:53:05;;;;;;;23.50;15.30;;;;;;;2.30;87.79;97653.36;226499;1274;22602;-74
2023/12/24 08:58:08;;;;;;;18.80;13.00;;;;;;;2.35;87.63;97646.92;226351;1270;23431;-74
2023/12/24 09:03:10;;;;;;;20.60;13.00;;;;;;;2.42;87.62;97644.49;226493;1274;25481;-74
2023/12/24 09:08:13;;;;;;;17.60;12.60;;;;;;;2.52;87.62;97641.40;226366;1273;22567;-74
2023/12/24 09:13:15;;;;;;;19.40;12.60;;;;;;;2.67;87.71;97652.25;226454;1263;22555;-75
2023/12/24 09:18:18;;;;;;;19.20;12.80;;;;;;;2.73;86.98;97655.81;226387;1273;22764;-74
2023/12/24 09:23:21;;;;;;;21.30;14.20;;;;;;;2.80;87.33;97651.30;226510;1274;22539;-74
2023/12/24 09:28:23;;;;;;;20.10;13.70;;;;;;;2.95;87.01;97634.25;226481;1266;22568;-74
2023/12/24 09:33:25;;;;;;;20.10;12.70;;;;;;;3.15;87.14;97631.00;226413;1274;22908;-74
2023/12/24 09:38:27;;;;;;;19.90;13.10;;;;;;;3.25;86.91;97626.73;226442;1272;22526;-74
2023/12/24 09:43:31;;;;;;;20.20;12.20;;;;;;;3.29;86.39;97618.31;226433;1273;22555;-74
2023/12/24 09:48:34;;;;;;;20.30;13.20;;;;;;;3.32;86.47;97608.02;226421;1270;22614;-75
2023/12/24 09:53:38;;;;;;;18.80;13.20;;;;;;;3.31;85.95;97597.23;226484;1273;22991;-75
2023/12/24 09:58:41;;;;;;;19.50;13.00;;;;;;;3.32;86.16;97587.50;226469;1273;22547;-75
2023/12/24 10:03:44;;;;;;;22.30;15.00;;;;;;;3.34;85.72;97590.59;226422;1269;22548;-75
2023/12/24 10:08:54;;;;;;;24.10;15.90;;;;;;;3.30;85.65;97569.08;226399;1271;22536;-75
2023/12/24 10:13:57;;;;;;;;;;;;;;;3.25;85.37;97588.98;226401;1273;22601;-75
2023/12/24 10:18:59;;;;;;;25.30;15.70;;;;;;;3.26;85.71;97570.41;226375;1273;22539;-75
2023/12/24 10:24:05;;;;;;;29.70;19.00;;;;;;;3.26;85.38;97559.64;226413;1273;22547;-74
2023/12/24 10:29:07;;;;;;;25.00;18.10;;;;;;;3.17;84.91;97562.01;226448;1274;22546;-74
2023/12/24 10:34:19;;;;;;;30.50;20.50;;;;;;;3.13;85.53;97556.54;226468;1273;22551;-75
2023/12/24 10:39:25;;;;;;;30.80;21.00;;;;;;;3.19;85.63;97550.13;226458;1274;22541;-74
2023/12/24 10:44:28;;;;;;;26.10;17.10;;;;;;;3.24;85.82;97548.89;226552;1273;22645;-74
2023/12/24 10:49:31;;;;;;;23.90;16.60;;;;;;;3.24;86.28;97544.04;226266;1273;22545;-74
2023/12/24 10:54:35;;;;;;;23.90;16.50;;;;;;;3.32;85.98;97538.27;226300;1269;22550;-75
2023/12/24 10:59:45;;;;;;;24.50;16.60;;;;;;;3.32;86.06;97527.08;226331;1270;22543;-74
2023/12/24 11:04:49;;;;;;;22.30;15.40;;;;;;;3.36;85.92;97521.88;226259;1273;24276;-75
2023/12/24 11:09:51;;;;;;;20.30;14.90;;;;;;;3.43;86.42;97517.83;226389;1272;22565;-74
2023/12/24 11:14:53;;;;;;;18.70;13.10;;;;;;;3.53;86.88;97524.20;226440;1273;24247;-75
2023/12/24 11:19:56;;;;;;;17.90;12.60;;;;;;;3.69;87.01;97524.30;226430;1273;22543;-75
2023/12/24 11:25:16;;;;;;;20.80;13.50;;;;;;;3.84;86.85;97509.16;226369;1273;119581;-75
2023/12/24 11:30:18;;;;;;;20.50;13.40;;;;;;;3.99;86.95;97506.83;226828;1272;22561;-75
2023/12/24 11:35:52;;;;;;;15.70;11.80;;;;;;;4.08;86.84;97495.94;226496;1274;22542;-74
2023/12/24 11:41:07;;;;;;;14.50;9.90;;;;;;;4.11;87.24;97493.10;226366;1271;22536;-74
2023/12/24 11:46:10;;;;;;;11.20;9.00;;;;;;;4.13;87.53;97496.14;227337;1268;22552;-75
2023/12/24 11:51:12;;;;;;;11.10;7.80;;;;;;;4.18;87.59;97496.08;226418;1273;22556;-75
2023/12/24 11:56:17;;;;;;;10.40;7.80;;;;;;;4.26;87.74;97496.09;226452;1270;22540;-75
2023/12/24 12:01:20;;;;;;;13.30;9.00;;;;;;;4.27;87.53;97495.02;226509;1270;22541;-75
2023/12/24 12:06:22;;;;;;;10.80;7.70;;;;;;;4.25;88.01;97496.27;226502;1272;22559;-76
2023/12/24 12:11:24;;;;;;;9.90;6.70;;;;;;;4.27;87.95;97499.52;226451;1272;22564;-76
2023/12/24 12:16:26;;;;;;;10.20;7.20;;;;;;;4.34;88.19;97491.11;226491;1273;22544;-75
2023/12/24 12:21:28;;;;;;;10.40;7.10;;;;;;;4.37;88.34;97489.20;226526;1272;23288;-75
2023/12/24 12:26:30;;;;;;;8.70;6.90;;;;;;;4.39;88.63;97495.41;226467;1273;22555;-74
2023/12/24 12:31:32;;;;;;;8.00;5.50;;;;;;;4.46;88.78;97496.60;226524;1273;22589;-74
2023/12/24 12:36:35;;;;;;;8.20;5.20;;;;;;;4.52;88.95;97507.41;226491;1267;22551;-74
2023/12/24 12:41:37;;;;;;;7.30;5.80;;;;;;;4.55;89.45;97510.77;226541;1267;22540;-75
2023/12/24 12:46:39;;;;;;;9.10;6.10;;;;;;;4.48;89.35;97511.84;226495;1273;22571;-75
2023/12/24 12:51:41;;;;;;;8.50;6.60;;;;;;;4.40;90.09;97510.80;226433;1267;22548;-75
2023/12/24 12:56:44;;;;;;;10.30;5.90;;;;;;;4.34;90.74;97510.95;226489;1269;25474;-75
2023/12/24 13:01:47;;;;;;;6.50;5.10;;;;;;;4.33;90.95;97510.02;226666;1270;22607;-75
2023/12/24 13:06:53;;;;;;;9.10;5.30;;;;;;;4.33;91.69;97514.04;226418;1273;22568;-74
2023/12/24 13:12:07;;;;;;;6.40;4.90;;;;;;;4.34;92.35;97525.20;226488;1267;24597;-75
2023/12/24 13:17:10;;;;;;;9.00;6.20;;;;;;;4.34;92.63;97528.77;226506;1273;24337;-75
2023/12/24 13:22:13;;;;;;;8.30;6.00;;;;;;;4.32;92.84;97532.40;226526;1270;24467;-74
2023/12/24 13:27:18;;;;;;;10.60;6.60;;;;;;;4.28;93.33;97540.05;226419;1273;24260;-76
2023/12/24 13:32:20;;;;;;;10.10;6.00;;;;;;;4.24;93.48;97540.11;226427;1273;22565;-74
2023/12/24 13:37:22;;;;;;;8.60;5.90;;;;;;;4.22;93.66;97540.58;226446;1274;22563;-75
2023/12/24 13:42:24;;;;;;;9.50;6.40;;;;;;;4.24;94.18;97531.98;226397;1273;22537;-75
2023/12/24 13:47:25;;;;;;;7.80;5.50;;;;;;;4.27;94.47;97529.85;226384;1273;22567;-75
2023/12/24 13:52:29;;;;;;;9.00;5.80;;;;;;;4.29;94.17;97532.50;226417;1269;24224;-75
2023/12/24 13:57:33;;;;;;;11.70;7.00;;;;;;;4.30;94.20;97530.29;226448;1273;23062;-75
2023/12/24 14:02:36;;;;;;;10.70;7.00;;;;;;;4.27;94.33;97523.98;226501;1273;22544;-75
2023/12/24 14:07:42;;;;;;;9.90;7.20;;;;;;;4.23;93.93;97514.27;226455;1273;22582;-76
2023/12/24 14:12:45;;;;;;;10.10;7.50;;;;;;;4.21;94.23;97509.04;226380;1273;22576;-74
2023/12/24 14:17:47;;;;;;;10.60;6.90;;;;;;;4.17;94.77;97515.88;226344;1273;22600;-74
2023/12/24 14:22:49;;;;;;;10.10;6.90;;;;;;;4.15;94.80;97521.71;226423;1270;22582;-75
2023/12/24 14:27:51;;;;;;;10.60;6.50;;;;;;;4.13;95.14;97519.51;226422;1273;22547;-75
2023/12/24 14:32:53;;;;;;;10.90;7.40;;;;;;;4.11;94.77;97520.93;226484;1270;22629;-74
2023/12/24 14:37:56;;;;;;;13.20;8.10;;;;;;;4.11;94.68;97528.34;226410;1270;22559;-74
2023/12/24 14:42:58;;;;;;;12.30;8.70;;;;;;;4.08;94.58;97526.18;226541;1273;22544;-74
2023/12/24 14:48:00;;;;;;;10.10;7.90;;;;;;;4.06;94.52;97525.61;226495;1268;25335;-74
2023/12/24 14:53:03;;;;;;;11.80;7.40;;;;;;;4.06;94.47;97520.59;226520;1273;22539;-74
2023/12/24 14:58:05;;;;;;;11.20;7.60;;;;;;;4.03;94.42;97511.77;226576;1272;22567;-75
2023/12/24 15:03:07;;;;;;;10.10;7.20;;;;;;;4.05;94.74;97516.40;226476;1273;24334;-74
2023/12/24 15:08:09;;;;;;;9.80;7.00;;;;;;;4.09;94.90;97524.83;226416;1272;24359;-74
2023/12/24 15:13:11;;;;;;;11.90;7.90;;;;;;;4.14;94.76;97526.76;226549;1274;22606;-74
2023/12/24 15:18:13;;;;;;;9.50;6.40;;;;;;;4.19;94.67;97520.55;226490;1273;22536;-75
2023/12/24 15:23:16;;;;;;;10.40;6.40;;;;;;;4.24;94.91;97503.62;226473;1272;25374;-75
2023/12/24 15:28:19;;;;;;;8.80;6.20;;;;;;;4.30;94.76;97497.83;226505;1263;25351;-75
2023/12/24 15:33:21;;;;;;;10.80;6.60;;;;;;;4.37;94.76;97504.32;226552;1268;22544;-74
2023/12/24 15:38:23;;;;;;;9.90;5.50;;;;;;;4.45;94.72;97502.14;226593;1266;22546;-74
2023/12/24 15:43:28;;;;;;;9.60;6.70;;;;;;;4.54;94.72;97494.98;226598;1273;22547;-74
2023/12/24 15:48:30;;;;;;;11.30;6.10;;;;;;;4.58;94.30;97494.64;226549;1270;25271;-75
2023/12/24 15:53:32;;;;;;;9.80;6.10;;;;;;;4.63;94.03;97504.21;226589;1273;24271;-75
2023/12/24 15:58:35;;;;;;;9.60;6.30;;;;;;;4.67;94.06;97506.16;226477;1250;22541;-75
2023/12/24 16:03:37;;;;;;;11.90;6.90;;;;;;;4.66;93.56;97495.69;226631;1273;22675;-75
2023/12/24 16:08:39;;;;;;;14.80;6.90;;;;;;;4.66;93.48;97491.70;226558;1273;22543;-75
2023/12/24 16:13:41;;;;;;;11.20;7.10;;;;;;;4.66;93.36;97492.64;226559;1273;23019;-75
2023/12/24 16:18:43;;;;;;;12.50;7.90;;;;;;;4.68;93.28;97492.86;226631;1268;22540;-76
2023/12/24 16:23:46;;;;;;;13.20;7.40;;;;;;;4.69;93.33;97481.52;226575;1274;22551;-75
2023/12/24 16:28:48;;;;;;;11.90;6.70;;;;;;;4.70;93.08;97486.74;226602;1267;24297;-75
2023/12/24 16:33:50;;;;;;;10.60;6.10;;;;;;;4.73;92.94;97484.36;226652;1270;22598;-77
2023/12/24 16:38:53;;;;;;;10.30;6.00;;;;;;;4.73;93.28;97481.52;226502;1273;22551;-75
2023/12/24 16:43:56;;;;;;;9.00;5.20;;;;;;;4.76;93.35;97476.16;226469;1266;22553;-74
2023/12/24 16:48:58;;;;;;;8.30;4.60;;;;;;;4.77;93.12;97482.77;226403;1262;22548;-75
2023/12/24 16:54:00;;;;;;;7.30;4.50;;;;;;;4.81;93.09;97473.55;226447;1269;22578;-75
2023/12/24 16:59:02;;;;;;;8.60;4.60;;;;;;;4.86;92.75;97470.15;226435;1262;22555;-74
2023/12/24 17:04:04;;;;;;;7.80;4.40;;;;;;;4.92;92.77;97472.53;226439;1269;22550;-75
2023/12/24 17:09:08;;;;;;;5.80;3.90;;;;;;;4.99;92.88;97466.77;226384;1269;22626;-74
2023/12/24 17:14:10;;;;;;;7.80;3.90;;;;;;;5.03;92.57;97465.81;226258;1273;22848;-74
2023/12/24 17:19:13;;;;;;;6.30;3.70;;;;;;;5.07;92.55;97456.95;226331;1273;24335;-74
2023/12/24 17:24:15;;;;;;;7.00;3.30;;;;;;;5.11;92.68;97449.34;226440;1273;22548;-75
2023/12/24 17:29:18;;;;;;;6.10;4.00;;;;;;;5.16;92.48;97455.44;226408;1271;22540;-75
2023/12/24 17:34:21;;;;;;;7.30;4.00;;;;;;;5.20;92.66;97449.98;226341;1269;22559;-77
2023/12/24 17:39:23;;;;;;;6.80;4.00;;;;;;;5.28;92.32;97443.83;226333;1270;24281;-76
2023/12/24 17:44:25;;;;;;;6.80;3.80;;;;;;;5.34;92.21;97445.05;226278;1270;22535;-76
2023/12/24 17:49:27;;;;;;;5.30;3.60;;;;;;;5.36;92.24;97440.39;226379;1264;22552;-74
2023/12/24 17:54:30;;;;;;;5.20;3.40;;;;;;;5.38;92.02;97440.29;226404;1273;22690;-74
2023/12/24 17:59:32;;;;;;;6.60;4.10;;;;;;;5.43;92.01;97443.16;226307;1273;22707;-74
2023/12/24 18:04:34;;;;;;;5.10;3.20;;;;;;;5.45;91.86;97442.21;226393;1273;22543;-75
2023/12/24 18:09:36;;;;;;;6.60;3.00;;;;;;;5.53;91.76;97454.69;226248;1265;22556;-74
2023/12/24 18:14:38;;;;;;;7.20;3.40;;;;;;;5.60;91.81;97454.15;226264;1267;22540;-75
2023/12/24 18:19:40;;;;;;;5.30;3.00;;;;;;;5.64;91.73;97432.41;226395;1273;22543;-74
2023/12/24 18:24:42;;;;;;;7.90;3.70;;;;;;;5.70;91.48;97435.80;226329;1256;22540;-74
2023/12/24 18:29:44;;;;;;;6.30;3.60;;;;;;;5.73;91.46;97427.11;226342;1267;22559;-74
2023/12/24 18:34:46;;;;;;;5.10;3.00;;;;;;;5.74;91.36;97429.14;226313;1269;25406;-73
2023/12/24 18:39:48;;;;;;;5.10;3.00;;;;;;;5.76;91.33;97427.91;226270;1273;22593;-74
2023/12/24 18:44:50;;;;;;;5.20;3.30;;;;;;;5.79;90.96;97428.68;226352;1273;22549;-74
2023/12/24 18:49:52;;;;;;;5.80;3.30;;;;;;;5.85;90.96;97420.75;226306;1266;22556;-75
2023/12/24 18:54:54;;;;;;;4.90;3.20;;;;;;;5.88;90.90;97420.27;226372;1251;22593;-75
2023/12/24 18:59:56;;;;;;;5.30;3.40;;;;;;;5.90;91.06;97408.00;226375;1272;22548;-74
2023/12/24 19:04:58;;;;;;;6.20;3.60;;;;;;;5.89;90.99;97400.93;226317;1272;22920;-74
2023/12/24 19:10:01;;;;;;;7.60;3.70;;;;;;;5.88;90.71;97408.17;226325;1269;22559;-74
2023/12/24 19:15:04;;;;;;;9.20;4.60;;;;;;;5.86;90.50;97407.70;226324;1266;23259;-74
2023/12/24 19:20:07;;;;;;;8.30;5.00;;;;;;;5.88;90.69;97407.13;226361;1270;22525;-76
2023/12/24 19:25:09;;;;;;;8.20;4.70;;;;;;;5.91;90.47;97396.12;227152;1269;22558;-74
2023/12/24 19:30:12;;;;;;;8.20;4.50;;;;;;;5.91;90.44;97382.05;226488;1269;22551;-75
2023/12/24 19:35:15;;;;;;;8.10;4.10;;;;;;;5.92;90.66;97370.00;226549;1272;23191;-74
2023/12/24 19:40:17;;;;;;;8.00;4.70;;;;;;;5.93;90.89;97369.27;226526;1269;22622;-74
2023/12/24 19:45:19;;;;;;;10.20;5.70;;;;;;;5.97;90.75;97383.11;226518;1272;22587;-74
2023/12/24 19:50:21;;;;;;;11.20;6.20;;;;;;;6.00;90.79;97384.79;226491;1251;22549;-76
2023/12/24 19:55:23;;;;;;;9.00;5.30;;;;;;;5.98;90.56;97369.31;226539;1265;22560;-76
2023/12/24 20:00:25;;;;;;;8.90;5.50;;;;;;;5.95;90.88;97373.58;226417;1272;22569;-74
2023/12/24 20:05:27;;;;;;;8.90;5.20;;;;;;;5.95;91.07;97369.94;226505;1273;22563;-74
2023/12/24 20:10:29;;;;;;;7.00;4.30;;;;;;;5.95;91.38;97364.13;226506;1270;22547;-74
2023/12/24 20:15:32;;;;;;;7.70;4.10;;;;;;;5.96;91.24;97358.55;226423;1264;22480;-74
2023/12/24 20:20:35;;;;;;;8.70;4.10;;;;;;;5.97;91.21;97357.25;226556;1271;22620;-74
2023/12/24 20:25:37;;;;;;;8.00;4.70;;;;;;;5.96;91.58;97344.42;226516;1269;22683;-74
2023/12/24 20:30:41;;;;;;;7.50;4.40;;;;;;;5.97;91.14;97334.95;226570;1273;22568;-75
2023/12/24 20:35:44;;;;;;;7.90;5.00;;;;;;;5.97;91.31;97338.02;226410;1269;22652;-76
2023/12/24 20:40:46;;;;;;;7.90;4.50;;;;;;;6.01;91.52;97340.83;226462;1273;23039;-75
2023/12/24 20:45:48;;;;;;;7.10;4.50;;;;;;;6.05;91.52;97337.39;226398;1273;24912;-75
2023/12/24 20:50:50;;;;;;;8.20;4.10;;;;;;;6.11;91.66;97334.25;226423;1272;22557;-76
2023/12/24 20:55:52;;;;;;;8.20;4.10;;;;;;;6.16;91.50;97334.36;226494;1273;22901;-75
2023/12/24 21:00:54;;;;;;;5.90;3.60;;;;;;;6.23;91.27;97311.15;226490;1272;22522;-76
2023/12/24 21:05:56;;;;;;;7.80;4.40;;;;;;;6.29;91.31;97307.91;226454;1270;22650;-75
2023/12/24 21:10:59;;;;;;;5.90;3.30;;;;;;;6.34;91.13;97300.90;226485;1273;22634;-74
2023/12/24 21:16:02;;;;;;;6.10;3.50;;;;;;;6.41;91.23;97311.33;226441;1271;23134;-75
2023/12/24 21:21:05;;;;;;;6.60;3.50;;;;;;;6.47;91.39;97307.39;226531;1273;25468;-74
2023/12/24 21:26:09;;;;;;;5.50;3.70;;;;;;;6.48;91.94;97301.95;226831;1269;25267;-75
2023/12/24 21:31:12;;;;;;;7.90;4.20;;;;;;;6.44;91.92;97289.17;226505;1273;24276;-74
2023/12/24 21:36:16;;;;;;;9.00;4.80;;;;;;;6.34;92.12;97298.64;226371;1272;22615;-74
2023/12/24 21:41:18;;;;;;;8.20;4.50;;;;;;;6.28;92.47;97290.87;226323;1263;22537;-74
2023/12/24 21:46:21;;;;;;;8.50;4.70;;;;;;;6.21;92.70;97292.30;226526;1273;22682;-74
2023/12/24 21:51:24;;;;;;;5.90;4.10;;;;;;;6.19;93.11;97298.27;226534;1272;22552;-74
2023/12/24 21:56:26;;;;;;;5.70;4.30;;;;;;;6.15;93.43;97291.06;226452;1272;22779;-74
2023/12/24 22:01:32;;;;;;;7.50;5.10;;;;;;;6.12;93.62;97279.08;226435;1269;22552;-74
2023/12/24 22:06:38;;;;;;;7.60;4.20;;;;;;;6.10;94.50;97277.81;226490;1272;22616;-75
2023/12/24 22:11:41;;;;;;;8.90;4.80;;;;;;;6.10;94.66;97280.43;226412;1269;22547;-74
2023/12/24 22:16:43;;;;;;;8.10;4.70;;;;;;;6.08;94.53;97281.65;226435;1273;22580;-75
2023/12/24 22:21:48;;;;;;;7.70;4.70;;;;;;;6.07;94.34;97288.36;226449;1273;22642;-74
2023/12/24 22:26:50;;;;;;;8.70;4.80;;;;;;;6.09;94.91;97287.81;226478;1266;22561;-75
2023/12/24 22:31:52;;;;;;;6.40;4.50;;;;;;;6.09;95.41;97281.84;226431;1272;22563;-75
2023/12/24 22:36:55;;;;;;;6.30;3.30;;;;;;;6.10;94.97;97275.19;226497;1273;22562;-75
2023/12/24 22:41:57;;;;;;;6.50;4.30;;;;;;;6.13;95.43;97280.52;226393;1269;23434;-75
2023/12/24 22:46:59;;;;;;;6.60;3.70;;;;;;;6.15;95.80;97273.64;226493;1269;22547;-75
2023/12/24 22:52:02;;;;;;;5.70;3.60;;;;;;;6.20;96.02;97269.72;226503;1272;22568;-76
2023/12/24 22:57:04;;;;;;;5.40;3.90;;;;;;;6.24;95.66;97258.25;226437;1272;22547;-75
2023/12/24 23:02:06;;;;;;;4.60;3.90;;;;;;;6.25;95.66;97252.23;226519;1272;22559;-75
2023/12/24 23:07:08;;;;;;;4.50;3.20;;;;;;;6.27;95.74;97254.87;226485;1272;22530;-75
2023/12/24 23:12:10;;;;;;;4.80;3.40;;;;;;;6.30;95.72;97255.69;226396;1272;22541;-75
2023/12/24 23:17:12;;;;;;;4.70;3.60;;;;;;;6.33;95.65;97252.15;226422;1272;22556;-76
2023/12/24 23:22:14;;;;;;;5.70;3.70;;;;;;;6.36;95.93;97247.77;226398;1269;22581;-76
2023/12/24 23:27:16;;;;;;;5.30;3.30;;;;;;;6.38;95.75;97241.15;226277;1269;184209;-76
2023/12/24 23:32:18;;;;;;;6.90;4.10;;;;;;;6.39;95.70;97241.17;226524;1270;22590;-75
2023/12/24 23:37:20;;;;;;;6.40;3.70;;;;;;;6.41;95.40;97246.59;226531;1273;22546;-75